Time;durP1;ratioP1;P1;durP2;ratioP2;P2;SDS_P1;SDS_P2;PMS_P1;PMS_P2;Temp;Humidity;BMP_temperature;BMP_pressure;BME280_temperature;BME280_humidity;BME280_pressure;Samples;Min_cycle;Max_cycle;Signal;HPM_P1;HPM_P2
2023/04/14 00:00:50;;;;;;;11.73;10.93;;;;;;;10.78;67.21;91945.00;5112043;28;20225;-72
2023/04/14 00:03:16;;;;;;;12.23;11.33;;;;;;;10.69;66.63;91944.13;5111075;28;20228;-71
2023/04/14 00:05:42;;;;;;;10.30;9.60;;;;;;;10.79;65.85;91938.69;5111475;28;20224;-71
2023/04/14 00:08:07;;;;;;;10.00;9.30;;;;;;;10.79;66.85;91924.84;5112151;28;20183;-72
2023/04/14 00:10:32;;;;;;;11.97;11.10;;;;;;;10.75;67.14;91927.31;5110969;28;20231;-71
2023/04/14 00:12:59;;;;;;;10.23;9.53;;;;;;;10.77;67.08;91919.94;5110479;28;20196;-71
2023/04/14 00:15:24;;;;;;;11.37;10.67;;;;;;;10.70;67.09;91918.81;5111050;28;20328;-71
2023/04/14 00:17:50;;;;;;;11.97;11.17;;;;;;;10.66;68.00;91926.44;5112421;28;20201;-71
2023/04/14 00:20:15;;;;;;;12.20;11.40;;;;;;;10.84;67.03;91907.25;5110059;28;20242;-71
2023/04/14 00:22:40;;;;;;;12.50;11.70;;;;;;;10.68;67.12;91890.38;5113478;28;20184;-72
2023/04/14 00:25:06;;;;;;;12.43;11.53;;;;;;;10.59;67.45;91892.16;5109551;28;20227;-71
2023/04/14 00:27:32;;;;;;;11.73;10.70;;;;;;;10.64;67.90;91899.88;5111769;28;20171;-71
2023/04/14 00:29:57;;;;;;;11.03;10.13;;;;;;;10.85;66.56;91895.72;5110110;28;20221;-71
2023/04/14 00:32:22;;;;;;;11.80;11.03;;;;;;;10.84;66.54;91903.88;5110765;28;20184;-71
2023/04/14 00:34:48;;;;;;;10.63;9.67;;;;;;;10.63;68.13;91903.53;5109728;28;20281;-71
2023/04/14 00:37:13;;;;;;;10.90;10.20;;;;;;;10.64;65.95;91899.88;5110187;28;20207;-70
2023/04/14 00:39:38;;;;;;;10.60;10.00;;;;;;;10.66;65.48;91878.72;5112182;28;20275;-71
2023/04/14 00:42:04;;;;;;;11.33;10.20;;;;;;;10.91;66.12;91910.22;5107673;28;20191;-71
2023/04/14 00:44:29;;;;;;;10.93;10.33;;;;;;;10.87;65.80;91911.88;5109422;28;20186;-71
2023/04/14 00:46:57;;;;;;;10.47;9.87;;;;;;;10.96;65.36;91899.66;5111013;28;20211;-71
2023/04/14 00:49:23;;;;;;;10.80;10.00;;;;;;;11.07;65.71;91902.78;5109593;28;20186;-71
2023/04/14 00:51:48;;;;;;;10.30;9.57;;;;;;;10.96;64.94;91891.03;5110439;28;20202;-71
2023/04/14 00:54:17;;;;;;;11.23;10.07;;;;;;;11.11;65.04;91893.28;5109901;28;20181;-71
2023/04/14 00:56:43;;;;;;;10.23;9.53;;;;;;;11.04;65.56;91901.56;5109344;28;20299;-72
2023/04/14 00:59:09;;;;;;;10.47;9.83;;;;;;;11.00;65.97;91892.00;5111723;28;20183;-71
2023/04/14 01:01:37;;;;;;;10.93;10.23;;;;;;;11.02;64.66;91880.19;5109201;28;20219;-70
2023/04/14 01:04:03;;;;;;;10.20;9.67;;;;;;;11.10;65.58;91900.34;5109483;28;20185;-71
2023/04/14 01:06:28;;;;;;;10.33;9.73;;;;;;;11.14;65.67;91893.44;5109718;28;20233;-71
2023/04/14 01:08:55;;;;;;;10.57;9.97;;;;;;;11.10;67.19;91894.34;5113078;28;20189;-71
2023/04/14 01:11:26;;;;;;;11.23;10.40;;;;;;;11.01;64.51;91886.47;5109761;28;20228;-71
2023/04/14 01:14:10;;;;;;;10.43;9.57;;;;;;;11.10;65.06;91889.91;5111380;28;20199;-71
2023/04/14 01:16:39;;;;;;;9.67;9.00;;;;;;;10.98;67.15;91889.69;5110386;28;20229;-71
2023/04/14 01:19:40;;;;;;;10.80;9.97;;;;;;;11.03;66.80;91897.41;5109599;28;20221;-70
2023/04/14 01:22:08;;;;;;;10.93;10.13;;;;;;;11.09;65.57;91884.97;5083484;28;20338;-71
2023/04/14 01:24:55;;;;;;;11.17;10.17;;;;;;;11.14;66.65;91890.84;5090225;28;20175;-70
2023/04/14 01:27:36;;;;;;;12.23;11.17;;;;;;;11.07;66.63;91880.06;5099955;28;20190;-71
2023/04/14 01:30:21;;;;;;;10.43;9.77;;;;;;;11.29;64.78;91877.41;5093435;28;20240;-71
2023/04/14 01:32:50;;;;;;;11.37;10.77;;;;;;;11.11;67.04;91878.38;5088769;28;20183;-70
2023/04/14 01:35:28;;;;;;;11.57;10.87;;;;;;;11.05;67.54;91866.50;5096631;28;20295;-71
2023/04/14 01:38:02;;;;;;;10.17;9.60;;;;;;;11.13;67.94;91881.47;5109145;28;20195;-70
2023/04/14 01:40:29;;;;;;;10.57;9.77;;;;;;;11.09;67.29;91870.09;5108783;28;20307;-71
2023/04/14 01:43:07;;;;;;;11.03;10.03;;;;;;;11.30;67.75;91865.88;5112917;28;20192;-71
2023/04/14 01:45:41;;;;;;;9.77;9.07;;;;;;;11.28;69.10;91875.84;5113940;28;20235;-71
2023/04/14 01:48:08;;;;;;;10.30;9.77;;;;;;;10.95;68.08;91873.84;5113888;28;20186;-71
2023/04/14 01:50:35;;;;;;;10.17;9.23;;;;;;;10.90;69.12;91887.78;5112845;28;20277;-71
2023/04/14 01:53:05;;;;;;;10.10;9.40;;;;;;;10.95;69.25;91871.22;5113836;28;20206;-71
2023/04/14 01:55:33;;;;;;;10.83;10.03;;;;;;;10.84;70.30;91862.88;5112177;28;20228;-71
2023/04/14 01:58:00;;;;;;;11.47;10.77;;;;;;;10.98;71.12;91881.84;5113092;28;20187;-71
2023/04/14 02:00:26;;;;;;;9.87;9.33;;;;;;;10.95;71.12;91881.66;5113852;28;20230;-71
2023/04/14 02:02:53;;;;;;;10.50;9.47;;;;;;;10.87;71.74;91872.72;5113336;28;21251;-71
2023/04/14 02:05:20;;;;;;;10.57;9.87;;;;;;;10.91;72.24;91872.91;5112369;28;20247;-70
2023/04/14 02:07:47;;;;;;;10.27;9.53;;;;;;;10.84;72.99;91870.69;5113557;28;20180;-72
2023/04/14 02:10:17;;;;;;;11.00;10.20;;;;;;;10.90;72.53;91861.66;5128308;27;20236;-71
2023/04/14 02:12:44;;;;;;;10.80;9.93;;;;;;;10.88;72.51;91866.41;5111930;28;20245;-71
2023/04/14 02:15:12;;;;;;;11.27;10.63;;;;;;;10.92;72.89;91879.66;5112940;28;20224;-71
2023/04/14 02:17:40;;;;;;;10.27;9.37;;;;;;;10.80;73.75;91877.56;5114322;28;20218;-71
2023/04/14 02:20:11;;;;;;;10.57;9.70;;;;;;;10.80;73.60;91882.03;5113530;28;20963;-71
2023/04/14 02:22:37;;;;;;;11.60;10.53;;;;;;;10.80;72.76;91869.75;5113782;28;20195;-71
2023/04/14 02:25:03;;;;;;;11.43;10.53;;;;;;;10.91;72.17;91873.66;5112289;28;20241;-71
2023/04/14 02:27:40;;;;;;;11.43;10.43;;;;;;;10.85;73.33;91887.91;5112812;28;20232;-71
2023/04/14 02:30:15;;;;;;;12.00;10.80;;;;;;;10.98;72.66;91879.25;5114371;28;20227;-71
2023/04/14 02:32:45;;;;;;;12.70;11.70;;;;;;;10.64;74.34;91883.44;5113138;28;20182;-71
2023/04/14 02:35:15;;;;;;;11.60;10.90;;;;;;;10.58;74.14;91888.03;5114410;28;20229;-71
2023/04/14 02:37:46;;;;;;;11.77;10.90;;;;;;;10.41;73.66;91838.28;5112662;28;20175;-71
2023/04/14 02:40:16;;;;;;;11.87;10.87;;;;;;;10.79;73.69;91880.47;5113910;28;20237;-70
2023/04/14 02:42:45;;;;;;;9.93;9.20;;;;;;;10.56;73.94;91860.66;5112501;28;20188;-71
2023/04/14 02:45:18;;;;;;;10.67;9.80;;;;;;;10.66;74.42;91871.63;5113179;28;20259;-71
2023/04/14 02:47:46;;;;;;;11.10;10.30;;;;;;;10.59;75.44;91875.72;5111331;28;20182;-71
2023/04/14 02:50:15;;;;;;;12.07;11.17;;;;;;;10.56;74.58;91845.78;5111627;28;20304;-74
2023/04/14 02:52:42;;;;;;;10.53;9.67;;;;;;;10.60;74.58;91862.38;5111419;28;20720;-74
2023/04/14 02:55:09;;;;;;;10.53;9.77;;;;;;;10.64;75.38;91873.78;5114256;28;20230;-73
2023/04/14 02:57:36;;;;;;;11.03;10.33;;;;;;;10.68;75.03;91877.34;5112275;28;20192;-74
2023/04/14 03:00:02;;;;;;;11.70;10.93;;;;;;;10.57;74.16;91872.63;5111013;28;20222;-73
2023/04/14 03:02:29;;;;;;;13.23;10.83;;;;;;;10.66;73.12;91870.88;5111499;28;20276;-73
2023/04/14 03:04:54;;;;;;;11.93;11.03;;;;;;;10.68;72.60;91848.63;5110190;28;20236;-74
2023/04/14 03:07:20;;;;;;;11.93;10.57;;;;;;;10.96;68.68;91854.47;5112879;28;20254;-73
2023/04/14 03:09:49;;;;;;;11.10;10.40;;;;;;;10.76;72.26;91847.91;5110744;28;20231;-73
2023/04/14 03:12:17;;;;;;;11.60;10.90;;;;;;;10.85;71.69;91864.41;5113548;28;20269;-74
2023/04/14 03:14:43;;;;;;;10.57;9.87;;;;;;;10.75;71.70;91843.78;5111364;28;20223;-73
2023/04/14 03:17:10;;;;;;;12.93;11.93;;;;;;;10.60;72.47;91831.06;5111385;28;20196;-73
2023/04/14 03:19:39;;;;;;;11.20;10.57;;;;;;;10.62;72.64;91826.31;5110367;28;20233;-74
2023/04/14 03:22:06;;;;;;;11.27;10.47;;;;;;;10.48;73.88;91859.53;5112799;28;20208;-73
2023/04/14 03:24:33;;;;;;;10.63;9.87;;;;;;;10.47;73.90;91860.63;5111782;28;20205;-74
2023/04/14 03:27:07;;;;;;;12.47;11.63;;;;;;;10.52;73.50;91834.38;5111747;28;20312;-74
2023/04/14 03:29:38;;;;;;;11.53;10.77;;;;;;;10.61;73.46;91839.66;5112511;28;20246;-73
2023/04/14 03:32:06;;;;;;;11.17;10.47;;;;;;;10.61;74.14;91827.41;5111951;28;20187;-73
2023/04/14 03:34:34;;;;;;;12.10;11.10;;;;;;;10.39;74.35;91783.03;5114030;28;20192;-74
2023/04/14 03:37:01;;;;;;;10.60;9.90;;;;;;;10.45;74.66;91807.16;5111606;28;20203;-72
2023/04/14 03:39:30;;;;;;;10.23;9.53;;;;;;;10.36;76.37;91817.56;5111109;28;20220;-73
2023/04/14 03:41:58;;;;;;;11.17;10.07;;;;;;;10.29;76.52;91787.72;5111574;28;20184;-73
2023/04/14 03:44:26;;;;;;;10.93;10.13;;;;;;;10.46;76.52;91791.22;5112128;28;20204;-74
2023/04/14 03:46:53;;;;;;;10.73;10.10;;;;;;;10.40;76.36;91784.56;5110084;28;20185;-73
2023/04/14 03:49:22;;;;;;;10.93;10.00;;;;;;;10.30;76.75;91773.63;5109516;28;20215;-72
2023/04/14 03:51:52;;;;;;;10.30;9.60;;;;;;;10.31;77.26;91767.31;5088694;28;20217;-74
2023/04/14 03:54:22;;;;;;;11.13;10.27;;;;;;;10.27;75.88;91729.88;5089909;28;20221;-73
2023/04/14 03:56:50;;;;;;;10.10;9.30;;;;;;;10.50;75.45;91760.09;5110616;28;20294;-73
2023/04/14 03:59:18;;;;;;;10.97;10.27;;;;;;;10.61;74.69;91751.72;5111230;28;20185;-73
2023/04/14 04:01:45;;;;;;;9.90;9.07;;;;;;;10.47;73.97;91732.75;5110505;27;20224;-73
2023/04/14 04:04:10;;;;;;;11.57;10.57;;;;;;;10.01;75.33;91716.59;5110400;28;20190;-73
2023/04/14 04:06:36;;;;;;;10.50;9.77;;;;;;;10.16;75.67;91736.38;5109299;28;20249;-71
2023/04/14 04:09:03;;;;;;;9.83;9.23;;;;;;;10.44;73.72;91759.44;5111153;28;20795;-72
2023/04/14 04:11:32;;;;;;;10.17;9.67;;;;;;;10.45;73.74;91768.81;5109991;27;20289;-73
2023/04/14 04:14:00;;;;;;;11.07;10.03;;;;;;;10.36;74.41;91760.16;5109669;28;20200;-73
2023/04/14 04:16:27;;;;;;;10.00;9.40;;;;;;;10.10;73.52;91709.63;5110223;27;20235;-73
2023/04/14 04:18:53;;;;;;;17.67;10.37;;;;;;;10.35;73.36;91750.03;5110139;28;20187;-73
2023/04/14 04:21:20;;;;;;;12.20;10.30;;;;;;;10.33;73.13;91762.59;5110456;27;20227;-73
2023/04/14 04:23:52;;;;;;;12.07;11.17;;;;;;;10.29;72.78;91736.31;5110507;28;20190;-73
2023/04/14 04:26:18;;;;;;;10.47;9.57;;;;;;;10.51;72.38;91779.88;5110161;28;20237;-73
2023/04/14 04:28:45;;;;;;;12.70;11.53;;;;;;;10.63;71.70;91772.28;5110031;28;20189;-73
2023/04/14 04:31:13;;;;;;;11.07;10.43;;;;;;;10.62;70.64;91770.75;5109406;28;20231;-73
2023/04/14 04:33:39;;;;;;;10.30;9.40;;;;;;;10.61;70.32;91753.53;5111179;28;20176;-74
2023/04/14 04:36:05;;;;;;;10.63;9.83;;;;;;;10.82;70.29;91791.88;5109516;28;20353;-73
2023/04/14 04:38:31;;;;;;;12.07;11.23;;;;;;;10.60;70.27;91789.31;5109783;28;20185;-71
2023/04/14 04:40:56;;;;;;;10.97;10.27;;;;;;;10.91;69.51;91818.06;5109659;28;20217;-72
2023/04/14 04:43:22;;;;;;;11.30;10.40;;;;;;;10.72;69.63;91810.41;5109258;28;20258;-71
2023/04/14 04:45:56;;;;;;;11.67;10.77;;;;;;;10.84;69.59;91821.09;5107647;28;20232;-75
2023/04/14 04:48:22;;;;;;;11.07;10.30;;;;;;;10.82;69.74;91835.50;5107539;28;20189;-74
2023/04/14 04:50:47;;;;;;;10.83;9.93;;;;;;;10.83;69.81;91819.53;5108807;27;20250;-74
2023/04/14 04:53:12;;;;;;;11.73;10.87;;;;;;;10.87;69.51;91820.50;5109439;28;20208;-73
2023/04/14 04:55:40;;;;;;;12.07;10.80;;;;;;;11.04;69.45;91820.59;5108435;28;20228;-74
2023/04/14 04:58:05;;;;;;;12.33;11.43;;;;;;;11.12;68.82;91806.03;5109656;28;20202;-74
2023/04/14 05:00:30;;;;;;;11.70;10.87;;;;;;;11.14;68.89;91809.84;5107638;28;20314;-74
2023/04/14 05:02:56;;;;;;;10.70;10.10;;;;;;;11.17;69.20;91805.91;5108654;28;20306;-74
2023/04/14 05:05:21;;;;;;;12.07;11.17;;;;;;;11.35;69.07;91816.09;5108319;28;20222;-74
2023/04/14 05:07:47;;;;;;;10.67;9.87;;;;;;;11.48;69.04;91824.91;5107083;28;20210;-74
2023/04/14 05:10:12;;;;;;;10.93;10.23;;;;;;;11.34;68.67;91780.59;5109050;28;20226;-74
2023/04/14 05:12:37;;;;;;;10.20;9.50;;;;;;;11.47;68.79;91786.03;5110251;28;20189;-71
2023/04/14 05:15:03;;;;;;;10.87;10.07;;;;;;;11.52;68.96;91804.94;5108837;28;20289;-71
2023/04/14 05:17:29;;;;;;;10.47;9.83;;;;;;;11.59;68.26;91794.81;5113792;28;20176;-72
2023/04/14 05:19:54;;;;;;;10.90;9.80;;;;;;;11.47;68.19;91768.47;5113754;27;20234;-71
2023/04/14 05:22:19;;;;;;;10.43;9.73;;;;;;;11.67;68.41;91781.03;5115206;28;20257;-69
2023/04/14 05:24:51;;;;;;;10.90;9.93;;;;;;;11.87;68.72;91780.44;5109799;28;20251;-73
2023/04/14 05:27:16;;;;;;;11.67;10.73;;;;;;;11.82;68.51;91764.13;5094439;28;20203;-71
2023/04/14 05:29:42;;;;;;;10.83;9.93;;;;;;;12.13;68.32;91791.69;5095022;28;20778;-72
2023/04/14 05:32:07;;;;;;;11.07;10.47;;;;;;;12.34;67.65;91774.28;5114059;28;21099;-72
2023/04/14 05:34:33;;;;;;;11.43;10.53;;;;;;;12.41;67.78;91763.38;5115057;28;20230;-72
2023/04/14 05:36:58;;;;;;;15.43;12.60;;;;;;;12.49;65.69;91752.13;5116309;28;20211;-73
2023/04/14 05:39:23;;;;;;;11.47;10.47;;;;;;;12.63;64.53;91757.94;5115131;28;20183;-72
2023/04/14 05:41:49;;;;;;;11.53;10.73;;;;;;;12.64;65.20;91741.94;5114385;28;20195;-72
2023/04/14 05:44:14;;;;;;;11.20;10.37;;;;;;;12.96;65.82;91749.22;5115344;28;20211;-71
2023/04/14 05:46:40;;;;;;;10.77;9.90;;;;;;;13.21;63.74;91744.25;5114230;28;20283;-71
2023/04/14 05:49:05;;;;;;;10.97;10.27;;;;;;;13.52;60.68;91740.25;5113904;28;20228;-71
2023/04/14 05:51:31;;;;;;;11.03;9.63;;;;;;;13.63;59.20;91730.94;5114864;28;20227;-72
2023/04/14 05:53:57;;;;;;;10.80;9.93;;;;;;;13.33;60.77;91715.50;5115792;28;20290;-72
2023/04/14 05:56:23;;;;;;;10.57;9.93;;;;;;;13.37;62.53;91721.66;5115941;28;20224;-72
2023/04/14 05:58:50;;;;;;;9.93;9.10;;;;;;;13.53;61.35;91715.56;5115430;28;20202;-72
2023/04/14 06:01:15;;;;;;;9.97;9.13;;;;;;;13.72;59.39;91720.38;5114315;28;20236;-73
2023/04/14 06:03:41;;;;;;;9.50;8.87;;;;;;;13.79;59.25;91712.78;5115517;28;20184;-70
2023/04/14 06:06:07;;;;;;;8.97;8.47;;;;;;;14.03;56.77;91716.31;5114436;28;20212;-71
2023/04/14 06:08:32;;;;;;;10.20;9.47;;;;;;;13.73;57.52;91725.31;5114645;28;20210;-73
2023/04/14 06:10:58;;;;;;;9.23;8.63;;;;;;;13.67;57.58;91716.09;5114537;28;20248;-74
2023/04/14 06:13:23;;;;;;;9.77;9.17;;;;;;;13.72;57.20;91723.00;5114455;28;20255;-73
2023/04/14 06:15:49;;;;;;;10.23;9.63;;;;;;;13.67;57.15;91725.78;5114460;28;20226;-72
2023/04/14 06:18:15;;;;;;;9.33;8.63;;;;;;;13.78;56.96;91714.63;5114619;28;20176;-73
2023/04/14 06:20:41;;;;;;;9.93;9.43;;;;;;;13.77;57.49;91718.34;5113642;28;20223;-69
2023/04/14 06:23:06;;;;;;;10.40;9.63;;;;;;;13.55;57.40;91712.59;5113719;28;20243;-69
2023/04/14 06:25:33;;;;;;;10.90;10.13;;;;;;;13.78;57.04;91700.72;5115181;28;20288;-68
2023/04/14 06:28:02;;;;;;;9.47;8.97;;;;;;;13.54;57.66;91679.63;5112182;28;20188;-69
2023/04/14 06:30:33;;;;;;;10.10;9.30;;;;;;;13.87;56.70;91681.22;5111123;28;20232;-69
2023/04/14 06:33:03;;;;;;;10.20;9.50;;;;;;;13.79;59.21;91678.69;5111473;28;20201;-69
2023/04/14 06:35:33;;;;;;;10.57;9.87;;;;;;;13.76;58.35;91666.94;5106775;28;20224;-69
2023/04/14 06:37:59;;;;;;;10.10;9.27;;;;;;;14.09;55.70;91636.28;5111634;28;20256;-68
2023/04/14 06:40:25;;;;;;;10.53;9.67;;;;;;;14.36;57.18;91645.47;5110573;28;20220;-68
2023/04/14 06:42:50;;;;;;;10.47;9.77;;;;;;;14.67;54.21;91630.00;5110415;28;20211;-68
2023/04/14 06:45:15;;;;;;;10.23;9.40;;;;;;;14.62;54.25;91616.28;5111033;28;20231;-66
2023/04/14 06:47:41;;;;;;;10.77;9.97;;;;;;;14.95;53.28;91624.88;5111584;28;20191;-67
2023/04/14 06:50:06;;;;;;;10.80;9.90;;;;;;;15.02;53.11;91628.47;5108944;28;20258;-67
2023/04/14 06:52:32;;;;;;;10.23;8.53;;;;;;;14.91;52.74;91626.63;5112088;28;20184;-65
2023/04/14 06:54:57;;;;;;;9.17;8.57;;;;;;;15.08;52.28;91616.63;5110653;28;20219;-67
2023/04/14 06:57:23;;;;;;;9.97;9.17;;;;;;;15.26;51.57;91617.97;5110339;28;20292;-68
2023/04/14 06:59:48;;;;;;;10.87;9.73;;;;;;;15.41;49.76;91609.41;5112325;28;20753;-68
2023/04/14 07:02:13;;;;;;;10.27;9.43;;;;;;;15.49;49.25;91603.25;5111355;28;21306;-66
2023/04/14 07:04:39;;;;;;;9.80;9.30;;;;;;;15.50;49.56;91596.16;5111223;28;20235;-66
2023/04/14 07:07:04;;;;;;;10.97;10.07;;;;;;;15.89;49.99;91609.28;5111000;28;20180;-67
2023/04/14 07:09:30;;;;;;;10.43;9.80;;;;;;;16.47;48.21;91618.38;5110810;28;20180;-66
2023/04/14 07:11:56;;;;;;;10.00;9.23;;;;;;;16.69;46.79;91598.59;5111632;28;20252;-67
2023/04/14 07:14:24;;;;;;;10.20;9.57;;;;;;;16.60;47.37;91593.50;5108860;28;20241;-67
2023/04/14 07:16:51;;;;;;;9.67;9.00;;;;;;;17.07;45.92;91606.69;5109313;28;20180;-67
2023/04/14 07:19:16;;;;;;;9.37;8.70;;;;;;;17.17;45.55;91609.56;5111071;28;20257;-68
2023/04/14 07:21:44;;;;;;;10.07;9.27;;;;;;;17.28;44.95;91589.47;5111034;28;20228;-67
2023/04/14 07:24:09;;;;;;;10.67;9.87;;;;;;;17.11;45.29;91592.47;5108590;28;20204;-68
2023/04/14 07:26:35;;;;;;;10.63;9.90;;;;;;;17.07;44.53;91609.31;5104860;28;20224;-67
2023/04/14 07:29:00;;;;;;;9.13;8.63;;;;;;;16.28;45.90;91578.72;5107910;28;20172;-67
2023/04/14 07:31:26;;;;;;;10.73;10.03;;;;;;;16.45;46.54;91598.75;5109135;28;20223;-67
2023/04/14 07:33:51;;;;;;;10.63;9.83;;;;;;;16.41;46.92;91580.19;5107204;28;20195;-67
2023/04/14 07:36:17;;;;;;;10.70;9.67;;;;;;;16.62;46.03;91599.22;5107149;28;20228;-67
2023/04/14 07:38:42;;;;;;;10.03;9.43;;;;;;;16.67;45.41;91606.84;5110183;28;20218;-67
2023/04/14 07:41:08;;;;;;;9.23;8.67;;;;;;;16.77;46.20;91611.63;5109775;28;20228;-68
2023/04/14 07:43:34;;;;;;;10.00;9.40;;;;;;;16.68;45.26;91608.38;5107815;28;20184;-68
2023/04/14 07:46:08;;;;;;;8.57;8.07;;;;;;;16.85;46.38;91602.78;5109952;28;20227;-67
2023/04/14 07:48:35;;;;;;;10.30;9.63;;;;;;;17.14;47.44;91607.59;5110199;28;20185;-68
2023/04/14 07:51:01;;;;;;;9.40;8.50;;;;;;;17.35;45.31;91605.44;5109439;28;20232;-67
2023/04/14 07:53:27;;;;;;;9.50;8.60;;;;;;;17.13;46.43;91590.25;5110061;28;20248;-68
2023/04/14 07:55:52;;;;;;;9.80;9.07;;;;;;;17.78;43.06;91604.50;5109877;28;20250;-69
2023/04/14 07:58:18;;;;;;;9.57;8.87;;;;;;;17.89;42.48;91588.88;5109653;28;20202;-67
2023/04/14 08:00:43;;;;;;;10.27;9.27;;;;;;;17.99;43.23;91620.03;5109753;28;20228;-67
2023/04/14 08:03:09;;;;;;;9.43;8.77;;;;;;;17.65;45.12;91597.81;5109110;28;20236;-67
2023/04/14 08:05:35;;;;;;;10.03;9.40;;;;;;;17.30;44.15;91579.34;5109597;28;20625;-67
2023/04/14 08:08:00;;;;;;;8.97;8.37;;;;;;;18.05;40.95;91610.69;5111458;28;20177;-68
2023/04/14 08:10:25;;;;;;;10.10;8.17;;;;;;;17.78;35.66;91559.63;5110631;28;20239;-67
2023/04/14 08:12:51;;;;;;;11.87;8.80;;;;;;;18.61;34.42;91601.22;5112061;28;20267;-67
2023/04/14 08:15:17;;;;;;;11.30;8.63;;;;;;;19.07;33.42;91595.56;5109973;28;20226;-68
2023/04/14 08:17:43;;;;;;;16.47;8.53;;;;;;;18.94;31.43;91604.78;5111071;28;20495;-67
2023/04/14 08:20:09;;;;;;;10.77;9.03;;;;;;;18.78;31.87;91595.47;5111677;28;20249;-67
2023/04/14 08:22:34;;;;;;;8.10;7.43;;;;;;;19.03;32.57;91613.28;5111417;28;20193;-67
2023/04/14 08:25:00;;;;;;;11.03;8.00;;;;;;;19.13;33.11;91611.91;5109765;28;20240;-67
2023/04/14 08:27:25;;;;;;;13.13;8.23;;;;;;;19.24;32.24;91612.81;5111629;28;20181;-68
2023/04/14 08:29:50;;;;;;;14.63;8.10;;;;;;;19.42;32.79;91597.25;5110330;28;20251;-68
2023/04/14 08:32:16;;;;;;;10.77;7.33;;;;;;;19.46;32.16;91612.06;5110407;28;20214;-68
2023/04/14 08:34:41;;;;;;;10.03;8.43;;;;;;;19.58;32.03;91627.00;5110650;28;20234;-67
2023/04/14 08:37:07;;;;;;;12.13;8.40;;;;;;;19.57;33.11;91618.28;5109242;28;20225;-67
2023/04/14 08:39:32;;;;;;;12.13;8.20;;;;;;;19.69;31.59;91598.78;5109354;28;20289;-71
2023/04/14 08:41:58;;;;;;;12.43;8.33;;;;;;;20.55;30.95;91608.94;5109035;28;20217;-71
2023/04/14 08:44:23;;;;;;;8.90;8.07;;;;;;;20.59;30.56;91585.84;5108755;28;20191;-68
2023/04/14 08:46:54;;;;;;;13.33;8.20;;;;;;;20.10;31.21;91611.78;5109888;28;20184;-67
2023/04/14 08:49:55;;;;;;;12.37;8.77;;;;;;;20.35;31.25;91602.28;5108900;28;20220;-71
2023/04/14 08:52:23;;;;;;;15.40;9.80;;;;;;;19.86;31.56;91651.97;5090514;28;20205;-67
2023/04/14 08:54:49;;;;;;;21.03;9.77;;;;;;;19.45;32.17;91630.94;5109240;28;20229;-67
2023/04/14 08:57:18;;;;;;;20.20;10.27;;;;;;;20.09;33.11;91606.84;5109597;28;20186;-66
2023/04/14 08:59:44;;;;;;;13.67;8.37;;;;;;;19.64;32.37;91618.38;5108157;28;20262;-68
2023/04/14 09:02:10;;;;;;;14.80;9.23;;;;;;;20.03;31.66;91626.84;5109586;28;20225;-67
2023/04/14 09:04:36;;;;;;;15.50;8.33;;;;;;;20.18;31.99;91633.88;5109299;28;20194;-68
2023/04/14 09:07:02;;;;;;;10.07;8.27;;;;;;;20.01;31.16;91611.31;5108094;28;20190;-67
2023/04/14 09:09:29;;;;;;;11.87;8.83;;;;;;;19.87;31.48;91632.31;5109270;28;20190;-67
2023/04/14 09:11:56;;;;;;;14.30;8.23;;;;;;;19.90;31.29;91657.31;5111317;28;20193;-70
2023/04/14 09:14:22;;;;;;;16.43;8.83;;;;;;;20.29;30.91;91650.66;5109159;28;20198;-68
2023/04/14 09:16:50;;;;;;;14.20;8.83;;;;;;;20.29;32.19;91640.84;5111285;28;20199;-67
2023/04/14 09:19:15;;;;;;;14.87;9.50;;;;;;;20.06;31.18;91623.47;5108481;28;20218;-69
2023/04/14 09:21:41;;;;;;;12.37;9.13;;;;;;;20.35;31.87;91636.75;5110045;28;20222;-68
2023/04/14 09:24:07;;;;;;;15.00;8.60;;;;;;;20.38;31.04;91640.53;5109027;28;20242;-68
2023/04/14 09:26:32;;;;;;;14.47;10.37;;;;;;;20.34;31.44;91631.81;5107656;28;20214;-68
2023/04/14 09:28:58;;;;;;;18.07;10.53;;;;;;;20.09;32.08;91646.59;5110064;28;20195;-69
2023/04/14 09:31:24;;;;;;;21.90;11.50;;;;;;;20.05;30.77;91646.56;5109015;28;20295;-69
2023/04/14 09:33:49;;;;;;;11.30;8.47;;;;;;;19.61;32.00;91645.56;5109471;28;20194;-68
2023/04/14 09:36:20;;;;;;;13.70;8.90;;;;;;;19.71;31.84;91654.78;5108675;28;20229;-67
2023/04/14 09:38:48;;;;;;;16.63;9.45;;;;;;;19.74;32.06;91652.19;5108468;28;20282;-67
2023/04/14 09:41:18;;;;;;;17.73;9.30;;;;;;;19.20;31.70;91651.72;5108972;28;20226;-68
2023/04/14 09:43:44;;;;;;;24.60;11.97;;;;;;;19.21;33.46;91657.78;5108400;28;21757;-69
2023/04/14 09:46:10;;;;;;;15.43;10.93;;;;;;;19.34;33.37;91644.03;5109955;28;20242;-68
2023/04/14 09:48:49;;;;;;;19.77;10.33;;;;;;;18.96;33.22;91654.69;5109126;28;20217;-69
2023/04/14 09:51:15;;;;;;;11.50;9.10;;;;;;;19.04;33.32;91682.81;5110210;28;20235;-69
2023/04/14 09:53:40;;;;;;;21.03;10.83;;;;;;;19.13;34.94;91670.88;5108946;28;20193;-68
2023/04/14 09:56:08;;;;;;;11.33;8.90;;;;;;;18.97;34.05;91657.00;5109650;28;20228;-68
2023/04/14 09:58:36;;;;;;;14.20;9.27;;;;;;;18.77;33.89;91649.47;5108312;28;20179;-67
2023/04/14 10:01:20;;;;;;;18.67;13.03;;;;;;;19.06;35.60;91676.06;5108921;28;20217;-67
2023/04/14 10:03:47;;;;;;;12.57;9.43;;;;;;;18.71;36.18;91685.22;5111481;28;20241;-68
2023/04/14 10:06:23;;;;;;;15.03;11.80;;;;;;;19.35;34.60;91677.31;5110799;28;20218;-68
2023/04/14 10:08:51;;;;;;;14.20;11.07;;;;;;;18.87;35.15;91667.41;5112229;28;20190;-69
2023/04/14 10:11:26;;;;;;;12.47;9.80;;;;;;;19.08;35.00;91700.28;5113130;28;20233;-68
2023/04/14 10:13:58;;;;;;;20.37;13.87;;;;;;;18.57;36.08;91698.97;5109000;28;20220;-68
2023/04/14 10:16:24;;;;;;;17.47;13.83;;;;;;;18.41;36.58;91681.66;5110385;28;20222;-68
2023/04/14 10:18:51;;;;;;;11.70;10.63;;;;;;;18.60;37.72;91700.16;5111689;28;20189;-68
2023/04/14 10:21:16;;;;;;;12.63;9.60;;;;;;;18.72;37.74;91702.66;5110499;28;20313;-68
2023/04/14 10:23:43;;;;;;;18.57;13.53;;;;;;;17.99;41.00;91715.09;5113236;28;20186;-68
2023/04/14 10:26:10;;;;;;;32.63;14.77;;;;;;;17.72;42.71;91729.97;5110802;28;20237;-67
2023/04/14 10:28:42;;;;;;;21.00;14.37;;;;;;;17.48;44.89;91727.50;5112516;28;20184;-70
2023/04/14 10:31:14;;;;;;;18.80;11.87;;;;;;;17.48;46.11;91748.63;5111161;28;20220;-67
2023/04/14 10:33:41;;;;;;;16.10;11.53;;;;;;;17.23;53.76;91736.69;5107665;28;20188;-68
2023/04/14 10:36:07;;;;;;;10.47;9.40;;;;;;;16.82;56.21;91726.59;5110426;28;20229;-67
2023/04/14 10:38:41;;;;;;;15.23;10.07;;;;;;;16.62;54.30;91746.78;5111719;28;20169;-68
2023/04/14 10:41:07;;;;;;;10.87;9.87;;;;;;;16.34;54.55;91730.16;5111140;28;20295;-70
2023/04/14 10:43:35;;;;;;;13.90;9.57;;;;;;;16.50;54.15;91773.16;5113235;28;20183;-69
2023/04/14 10:46:01;;;;;;;11.07;9.97;;;;;;;16.50;53.26;91790.84;5127703;27;20238;-70
2023/04/14 10:48:32;;;;;;;9.80;9.10;;;;;;;16.66;51.90;91853.06;5108710;28;20214;-70
2023/04/14 10:50:58;;;;;;;8.90;8.20;;;;;;;16.00;55.30;91867.56;5108268;28;20223;-69
2023/04/14 10:53:27;;;;;;;8.83;8.13;;;;;;;15.69;57.01;91880.47;5110163;28;20199;-68
2023/04/14 10:55:55;;;;;;;9.77;9.27;;;;;;;15.32;59.72;91876.22;5111217;28;20272;-69
2023/04/14 10:58:28;;;;;;;7.83;7.40;;;;;;;15.75;58.07;91900.25;5110398;28;20210;-70
2023/04/14 11:00:56;;;;;;;8.03;7.53;;;;;;;15.70;56.19;91892.56;5109945;28;20235;-71
2023/04/14 11:03:22;;;;;;;8.27;7.77;;;;;;;15.83;56.54;91907.25;5110008;28;20234;-69
2023/04/14 11:05:50;;;;;;;8.27;7.77;;;;;;;15.68;58.10;91907.91;5108115;28;20235;-69
2023/04/14 11:08:35;;;;;;;8.67;8.17;;;;;;;16.33;57.63;91936.72;5108799;28;20252;-69
2023/04/14 11:11:05;;;;;;;7.27;6.97;;;;;;;15.61;56.80;91955.03;5108752;28;20897;-69
2023/04/14 11:13:32;;;;;;;8.93;8.53;;;;;;;16.08;58.00;91969.41;5110666;28;20192;-68
2023/04/14 11:16:07;;;;;;;15.17;13.77;;;;;;;16.45;54.27;91973.63;5110813;28;20245;-67
2023/04/14 11:18:41;;;;;;;11.83;11.03;;;;;;;16.75;53.64;91967.03;5111069;28;20190;-73
2023/04/14 11:21:14;;;;;;;7.57;7.07;;;;;;;16.06;52.20;91955.81;5109652;28;20292;-70
2023/04/14 11:23:41;;;;;;;9.83;9.13;;;;;;;15.19;55.38;91972.69;5109795;28;20191;-74
2023/04/14 11:26:08;;;;;;;10.73;9.90;;;;;;;15.11;55.47;91967.50;5111185;28;20238;-72